UAL1728 KELP-KDEN
Flight info
| Callsign | UAL1728 |
|---|---|
| Flight time | 1h 5m |
| Altitude | 38000 |
| Route | ATKNN5 SLNNK GNDLA TBARR4 |
| Aircraft | A319/M-SDE3FGHIRWY/LB1 |
Departure
| Time | 2026-05-06 21:55 |
|---|---|
| Airport | El Paso International Airport (KELP) |
Arrival
| Time | 2026-05-06 23:01 |
|---|---|
| Airport | Denver International Airport (KDEN) |
| Time | Latitude | Longitude | Altitude | Speed | Heading |
|---|---|---|---|---|---|
| 2026-05-06 21:37 | 31.80061 | -106.39418 | 3955 ft | 0 kts | 166° |
| 2026-05-06 21:45 | 31.80077 | -106.39422 | 3956 ft | 3 kts | 166° |
| 2026-05-06 21:45 | 31.80094 | -106.39427 | 3957 ft | 3 kts | 166° |
| 2026-05-06 21:45 | 31.80111 | -106.39432 | 3958 ft | 3 kts | 166° |
| 2026-05-06 21:46 | 31.80126 | -106.39440 | 3959 ft | 2 kts | 103° |
| 2026-05-06 21:46 | 31.80128 | -106.39446 | 3960 ft | 0 kts | 74° |
| 2026-05-06 21:49 | 31.80131 | -106.39433 | 3959 ft | 7 kts | 74° |
| 2026-05-06 21:50 | 31.80189 | -106.39359 | 3956 ft | 15 kts | 36° |
| 2026-05-06 21:50 | 31.80265 | -106.39298 | 3956 ft | 14 kts | 33° |
| 2026-05-06 21:50 | 31.80363 | -106.39249 | 3957 ft | 16 kts | 19° |
| 2026-05-06 21:50 | 31.80478 | -106.39201 | 3957 ft | 18 kts | 20° |
| 2026-05-06 21:51 | 31.80600 | -106.39147 | 3960 ft | 19 kts | 18° |
| 2026-05-06 21:51 | 31.80729 | -106.39093 | 3959 ft | 21 kts | 21° |
| 2026-05-06 21:51 | 31.80785 | -106.39000 | 3959 ft | 16 kts | 117° |
| 2026-05-06 21:51 | 31.80684 | -106.38881 | 3953 ft | 24 kts | 107° |
| 2026-05-06 21:52 | 31.80776 | -106.38725 | 3955 ft | 25 kts | 43° |
| 2026-05-06 21:52 | 31.80892 | -106.38589 | 3956 ft | 20 kts | 49° |
| 2026-05-06 21:52 | 31.80984 | -106.38455 | 3955 ft | 23 kts | 51° |
| 2026-05-06 21:52 | 31.81096 | -106.38302 | 3952 ft | 26 kts | 48° |
| 2026-05-06 21:53 | 31.81214 | -106.38132 | 3947 ft | 27 kts | 51° |
| 2026-05-06 21:53 | 31.81334 | -106.37965 | 3946 ft | 25 kts | 49° |
| 2026-05-06 21:53 | 31.81452 | -106.37803 | 3945 ft | 26 kts | 50° |
| 2026-05-06 21:53 | 31.81569 | -106.37639 | 3946 ft | 26 kts | 50° |
| 2026-05-06 21:54 | 31.81690 | -106.37471 | 3945 ft | 27 kts | 50° |
| 2026-05-06 21:54 | 31.81826 | -106.37434 | 3942 ft | 21 kts | 327° |
| 2026-05-06 21:54 | 31.81901 | -106.37542 | 3943 ft | 15 kts | 261° |
| 2026-05-06 21:54 | 31.81873 | -106.37584 | 3945 ft | 14 kts | 236° |
| 2026-05-06 21:55 | 31.81702 | -106.37833 | 3948 ft | 65 kts | 230° |
| 2026-05-06 21:55 | 31.81293 | -106.38398 | 3954 ft | 115 kts | 230° |
| 2026-05-06 21:55 | 31.80680 | -106.39267 | 3963 ft | 161 kts | 231° |
| 2026-05-06 21:55 | 31.79894 | -106.40264 | 4565 ft | 166 kts | 227° |
| 2026-05-06 21:56 | 31.79008 | -106.41147 | 5205 ft | 168 kts | 224° |
| 2026-05-06 21:56 | 31.78104 | -106.42038 | 5729 ft | 176 kts | 224° |
| 2026-05-06 21:56 | 31.77114 | -106.43030 | 5957 ft | 198 kts | 225° |
| 2026-05-06 21:56 | 31.76009 | -106.44167 | 6221 ft | 224 kts | 225° |
| 2026-05-06 21:57 | 31.74813 | -106.45493 | 6608 ft | 248 kts | 232° |
| 2026-05-06 21:57 | 31.74057 | -106.47363 | 7084 ft | 262 kts | 262° |
| 2026-05-06 21:57 | 31.74201 | -106.49509 | 7834 ft | 270 kts | 289° |
| 2026-05-06 21:57 | 31.75198 | -106.51394 | 8739 ft | 276 kts | 310° |
| 2026-05-06 21:58 | 31.76505 | -106.53052 | 9707 ft | 277 kts | 310° |
| 2026-05-06 21:58 | 31.77834 | -106.54726 | 10340 ft | 289 kts | 311° |
| 2026-05-06 21:58 | 31.79404 | -106.56371 | 10635 ft | 316 kts | 320° |
| 2026-05-06 21:58 | 31.81348 | -106.57793 | 10858 ft | 343 kts | 330° |
| 2026-05-06 21:59 | 31.83657 | -106.58847 | 11015 ft | 370 kts | 341° |
| 2026-05-06 21:59 | 31.86255 | -106.59412 | 11234 ft | 389 kts | 348° |
| 2026-05-06 21:59 | 31.88871 | -106.59859 | 11760 ft | 395 kts | 348° |
| 2026-05-06 21:59 | 31.91440 | -106.60311 | 12328 ft | 399 kts | 347° |
| 2026-05-06 22:00 | 31.94198 | -106.60809 | 12948 ft | 403 kts | 347° |
| 2026-05-06 22:00 | 31.96981 | -106.61317 | 13557 ft | 407 kts | 346° |
| 2026-05-06 22:00 | 31.99785 | -106.61874 | 14111 ft | 409 kts | 342° |
| 2026-05-06 22:00 | 32.02480 | -106.62880 | 14651 ft | 406 kts | 332° |
| 2026-05-06 22:01 | 32.04968 | -106.64408 | 15227 ft | 402 kts | 322° |
| 2026-05-06 22:01 | 32.07179 | -106.66393 | 15789 ft | 399 kts | 313° |
| 2026-05-06 22:01 | 32.09167 | -106.68679 | 16337 ft | 400 kts | 310° |
| 2026-05-06 22:01 | 32.11148 | -106.70988 | 16847 ft | 403 kts | 310° |
| 2026-05-06 22:02 | 32.13256 | -106.73208 | 17296 ft | 412 kts | 318° |
| 2026-05-06 22:02 | 32.16981 | -106.76168 | 18048 ft | 419 kts | 321° |
| 2026-05-06 22:02 | 32.21879 | -106.79984 | 18891 ft | 424 kts | 321° |
| 2026-05-06 22:02 | 32.26836 | -106.83848 | 19675 ft | 430 kts | 320° |
| 2026-05-06 22:03 | 32.31852 | -106.87776 | 20702 ft | 435 kts | 320° |
| 2026-05-06 22:03 | 32.36914 | -106.91753 | 21235 ft | 439 kts | 319° |
| 2026-05-06 22:03 | 32.42030 | -106.95774 | 21914 ft | 444 kts | 319° |
| 2026-05-06 22:03 | 32.47204 | -106.99838 | 22567 ft | 448 kts | 319° |
| 2026-05-06 22:04 | 32.52413 | -107.03937 | 23196 ft | 452 kts | 319° |
| 2026-05-06 22:04 | 32.57666 | -107.08083 | 23757 ft | 455 kts | 318° |
| 2026-05-06 22:04 | 32.62955 | -107.12264 | 24264 ft | 458 kts | 318° |
| 2026-05-06 22:04 | 32.68280 | -107.16475 | 24741 ft | 462 kts | 317° |
| 2026-05-06 22:05 | 32.73653 | -107.20734 | 25205 ft | 466 kts | 317° |
| 2026-05-06 22:05 | 32.79053 | -107.25024 | 25757 ft | 467 kts | 317° |
| 2026-05-06 22:05 | 32.84447 | -107.29299 | 26466 ft | 465 kts | 316° |
| 2026-05-06 22:05 | 32.89831 | -107.33557 | 27141 ft | 467 kts | 318° |
| 2026-05-06 22:06 | 32.96066 | -107.36392 | 27791 ft | 500 kts | 340° |
| 2026-05-06 22:06 | 33.03207 | -107.36222 | 28521 ft | 532 kts | 3° |
| 2026-05-06 22:06 | 33.10474 | -107.34415 | 29299 ft | 533 kts | 2° |
| 2026-05-06 22:06 | 33.17761 | -107.32662 | 29987 ft | 535 kts | 2° |
| 2026-05-06 22:07 | 33.25071 | -107.30909 | 30615 ft | 536 kts | 2° |
| 2026-05-06 22:07 | 33.32373 | -107.29133 | 31346 ft | 533 kts | 1° |
| 2026-05-06 22:07 | 33.39641 | -107.27765 | 31949 ft | 525 kts | 356° |
| 2026-05-06 22:07 | 33.46890 | -107.26876 | 32573 ft | 522 kts | 354° |
| 2026-05-06 22:08 | 33.54122 | -107.26009 | 33310 ft | 523 kts | 355° |
| 2026-05-06 22:08 | 33.61352 | -107.24983 | 34008 ft | 523 kts | 355° |
| 2026-05-06 22:08 | 33.68569 | -107.23889 | 34645 ft | 522 kts | 355° |
| 2026-05-06 22:08 | 33.75754 | -107.22823 | 35334 ft | 520 kts | 355° |
| 2026-05-06 22:09 | 33.82915 | -107.21776 | 36191 ft | 515 kts | 355° |
| 2026-05-06 22:09 | 33.89987 | -107.20745 | 36948 ft | 511 kts | 355° |
| 2026-05-06 22:09 | 33.97039 | -107.19727 | 37629 ft | 509 kts | 355° |
| 2026-05-06 22:09 | 34.04058 | -107.18711 | 37975 ft | 506 kts | 356° |
| 2026-05-06 22:10 | 34.09619 | -107.17890 | 37928 ft | 495 kts | 355° |
| 2026-05-06 22:10 | 34.13037 | -107.17382 | 37931 ft | 495 kts | 355° |
| 2026-05-06 22:10 | 34.36778 | -107.13891 | 37849 ft | 490 kts | 357° |
| 2026-05-06 22:11 | 34.59529 | -107.10532 | 37846 ft | 486 kts | 358° |
| 2026-05-06 22:11 | 34.69531 | -107.09039 | 37866 ft | 488 kts | 358° |
| 2026-05-06 22:12 | 34.83020 | -107.07048 | 37870 ft | 488 kts | 358° |
| 2026-05-06 22:12 | 34.96434 | -107.05044 | 37875 ft | 489 kts | 358° |
| 2026-05-06 22:13 | 35.10016 | -107.03018 | 37854 ft | 486 kts | 358° |
| 2026-05-06 22:13 | 35.23405 | -107.01002 | 37873 ft | 486 kts | 358° |
| 2026-05-06 22:14 | 35.36838 | -106.98974 | 37938 ft | 486 kts | 359° |
| 2026-05-06 22:14 | 35.50172 | -106.96954 | 37937 ft | 485 kts | 359° |
| 2026-05-06 22:15 | 35.63568 | -106.94922 | 37924 ft | 477 kts | 360° |
| 2026-05-06 22:15 | 35.76736 | -106.92911 | 37938 ft | 478 kts | 360° |
| 2026-05-06 22:16 | 35.89921 | -106.90896 | 37985 ft | 476 kts | 0° |
| 2026-05-06 22:16 | 36.02483 | -106.88971 | 37980 ft | 474 kts | 0° |
| 2026-05-06 22:17 | 36.09037 | -106.87975 | 37996 ft | 474 kts | 1° |
| 2026-05-06 22:17 | 36.15537 | -106.86971 | 37982 ft | 473 kts | 1° |
| 2026-05-06 22:18 | 36.22066 | -106.85962 | 37965 ft | 473 kts | 1° |
| 2026-05-06 22:18 | 36.28598 | -106.84956 | 37994 ft | 473 kts | 1° |
| 2026-05-06 22:19 | 36.35122 | -106.83943 | 37973 ft | 472 kts | 2° |
| 2026-05-06 22:19 | 36.41633 | -106.82927 | 37959 ft | 471 kts | 2° |
| 2026-05-06 22:20 | 36.48131 | -106.81921 | 37952 ft | 471 kts | 1° |
| 2026-05-06 22:20 | 36.54632 | -106.80922 | 37979 ft | 470 kts | 2° |
| 2026-05-06 22:21 | 36.61102 | -106.79899 | 37968 ft | 468 kts | 2° |
| 2026-05-06 22:21 | 36.67564 | -106.78891 | 37955 ft | 466 kts | 2° |
| 2026-05-06 22:22 | 36.74003 | -106.77894 | 37958 ft | 466 kts | 2° |
| 2026-05-06 22:22 | 36.79315 | -106.76763 | 37969 ft | 465 kts | 8° |
| 2026-05-06 22:23 | 36.85589 | -106.74988 | 37971 ft | 461 kts | 7° |
| 2026-05-06 22:23 | 36.91857 | -106.73237 | 37982 ft | 461 kts | 7° |
| 2026-05-06 22:24 | 36.98115 | -106.71489 | 37976 ft | 460 kts | 7° |
| 2026-05-06 22:24 | 37.04364 | -106.69747 | 38035 ft | 460 kts | 7° |
| 2026-05-06 22:25 | 37.10575 | -106.68004 | 37964 ft | 456 kts | 7° |
| 2026-05-06 22:25 | 37.16778 | -106.66254 | 37964 ft | 457 kts | 7° |
| 2026-05-06 22:26 | 37.22980 | -106.64504 | 37969 ft | 457 kts | 7° |
| 2026-05-06 22:26 | 37.29185 | -106.62746 | 37994 ft | 457 kts | 7° |
| 2026-05-06 22:27 | 37.35385 | -106.60992 | 37996 ft | 457 kts | 7° |
| 2026-05-06 22:27 | 37.41593 | -106.59230 | 38000 ft | 457 kts | 7° |
| 2026-05-06 22:28 | 37.47803 | -106.57471 | 38041 ft | 457 kts | 7° |
| 2026-05-06 22:28 | 37.53630 | -106.55815 | 38061 ft | 456 kts | 8° |
| 2026-05-06 22:29 | 37.59365 | -106.54181 | 38079 ft | 456 kts | 8° |
| 2026-05-06 22:29 | 37.65552 | -106.52411 | 38099 ft | 456 kts | 8° |
| 2026-05-06 22:30 | 37.71737 | -106.50642 | 38107 ft | 456 kts | 8° |
| 2026-05-06 22:30 | 37.77917 | -106.48875 | 38116 ft | 455 kts | 8° |
| 2026-05-06 22:31 | 37.83856 | -106.47174 | 38097 ft | 455 kts | 8° |
| 2026-05-06 22:31 | 37.90029 | -106.45406 | 38080 ft | 455 kts | 8° |
| 2026-05-06 22:32 | 37.96215 | -106.43632 | 38100 ft | 455 kts | 8° |
| 2026-05-06 22:32 | 38.02377 | -106.41856 | 38054 ft | 452 kts | 8° |
| 2026-05-06 22:33 | 38.08502 | -106.40082 | 38060 ft | 451 kts | 8° |
| 2026-05-06 22:33 | 38.14615 | -106.38316 | 38051 ft | 450 kts | 8° |
| 2026-05-06 22:34 | 38.20714 | -106.36558 | 38079 ft | 449 kts | 9° |
| 2026-05-06 22:34 | 38.26787 | -106.34805 | 38127 ft | 445 kts | 9° |
| 2026-05-06 22:35 | 38.32805 | -106.33054 | 38088 ft | 442 kts | 9° |
| 2026-05-06 22:35 | 38.38810 | -106.31305 | 38104 ft | 443 kts | 9° |
| 2026-05-06 22:36 | 38.44827 | -106.29558 | 38141 ft | 443 kts | 9° |
| 2026-05-06 22:36 | 38.50822 | -106.27817 | 38155 ft | 441 kts | 9° |
| 2026-05-06 22:37 | 38.56788 | -106.26073 | 38141 ft | 439 kts | 9° |
| 2026-05-06 22:37 | 38.62668 | -106.23966 | 38118 ft | 443 kts | 20° |
| 2026-05-06 22:38 | 38.65383 | -106.22057 | 37940 ft | 448 kts | 30° |
| 2026-05-06 22:38 | 38.67815 | -106.19529 | 37371 ft | 454 kts | 41° |
| 2026-05-06 22:38 | 38.69897 | -106.16498 | 37032 ft | 451 kts | 46° |
| 2026-05-06 22:38 | 38.71880 | -106.13403 | 36280 ft | 449 kts | 46° |
| 2026-05-06 22:39 | 38.73870 | -106.10357 | 35386 ft | 444 kts | 45° |
| 2026-05-06 22:39 | 38.75852 | -106.07352 | 34531 ft | 437 kts | 45° |
| 2026-05-06 22:39 | 38.77797 | -106.04408 | 33613 ft | 430 kts | 45° |
| 2026-05-06 22:39 | 38.79706 | -106.01504 | 32709 ft | 421 kts | 45° |
| 2026-05-06 22:40 | 38.81562 | -105.98663 | 31957 ft | 410 kts | 45° |
| 2026-05-06 22:40 | 38.83373 | -105.95880 | 31088 ft | 403 kts | 45° |
| 2026-05-06 22:40 | 38.85143 | -105.93149 | 30144 ft | 393 kts | 45° |
| 2026-05-06 22:40 | 38.86867 | -105.90487 | 29277 ft | 383 kts | 45° |
| 2026-05-06 22:41 | 38.90229 | -105.85293 | 28380 ft | 376 kts | 45° |
| 2026-05-06 22:41 | 38.91892 | -105.82711 | 27897 ft | 373 kts | 45° |
| 2026-05-06 22:41 | 38.93540 | -105.80146 | 27406 ft | 371 kts | 46° |
| 2026-05-06 22:42 | 38.95178 | -105.77594 | 26923 ft | 369 kts | 46° |
| 2026-05-06 22:42 | 38.96802 | -105.75061 | 26428 ft | 365 kts | 45° |
| 2026-05-06 22:42 | 38.98408 | -105.72548 | 25943 ft | 362 kts | 45° |
| 2026-05-06 22:42 | 39.00002 | -105.70053 | 25458 ft | 360 kts | 45° |
| 2026-05-06 22:43 | 39.01588 | -105.67565 | 24975 ft | 359 kts | 46° |
| 2026-05-06 22:43 | 39.03171 | -105.65090 | 24608 ft | 358 kts | 45° |
| 2026-05-06 22:43 | 39.04761 | -105.62622 | 24320 ft | 361 kts | 45° |
| 2026-05-06 22:43 | 39.06377 | -105.60127 | 24015 ft | 364 kts | 46° |
| 2026-05-06 22:44 | 39.07998 | -105.57617 | 23636 ft | 366 kts | 46° |
| 2026-05-06 22:44 | 39.09622 | -105.55096 | 23233 ft | 366 kts | 46° |
| 2026-05-06 22:44 | 39.11265 | -105.52560 | 22877 ft | 378 kts | 45° |
| 2026-05-06 22:44 | 39.13018 | -105.49903 | 22552 ft | 401 kts | 45° |
| 2026-05-06 22:45 | 39.14880 | -105.47108 | 22205 ft | 422 kts | 45° |
| 2026-05-06 22:45 | 39.16786 | -105.44218 | 21854 ft | 418 kts | 46° |
| 2026-05-06 22:45 | 39.18506 | -105.41503 | 21594 ft | 405 kts | 47° |
| 2026-05-06 22:45 | 39.20213 | -105.38731 | 21365 ft | 390 kts | 48° |
| 2026-05-06 22:46 | 39.21829 | -105.36070 | 21211 ft | 376 kts | 48° |
| 2026-05-06 22:46 | 39.23447 | -105.33405 | 20821 ft | 369 kts | 47° |
| 2026-05-06 22:46 | 39.25013 | -105.30846 | 20627 ft | 356 kts | 47° |
| 2026-05-06 22:46 | 39.26500 | -105.28426 | 20511 ft | 339 kts | 47° |
| 2026-05-06 22:47 | 39.27837 | -105.25931 | 19990 ft | 333 kts | 57° |
| 2026-05-06 22:47 | 39.28695 | -105.23144 | 19318 ft | 337 kts | 71° |
| 2026-05-06 22:47 | 39.29098 | -105.20197 | 18665 ft | 339 kts | 77° |
| 2026-05-06 22:47 | 39.29447 | -105.17194 | 17927 ft | 338 kts | 78° |
| 2026-05-06 22:48 | 39.29802 | -105.14158 | 17202 ft | 336 kts | 78° |
| 2026-05-06 22:48 | 39.30143 | -105.11239 | 16704 ft | 331 kts | 78° |
| 2026-05-06 22:48 | 39.30484 | -105.08300 | 16253 ft | 331 kts | 78° |
| 2026-05-06 22:48 | 39.30828 | -105.05361 | 15808 ft | 331 kts | 78° |
| 2026-05-06 22:49 | 39.31173 | -105.02417 | 15343 ft | 332 kts | 78° |
| 2026-05-06 22:49 | 39.31539 | -104.99476 | 14899 ft | 331 kts | 76° |
| 2026-05-06 22:49 | 39.32007 | -104.96576 | 14413 ft | 332 kts | 74° |
| 2026-05-06 22:49 | 39.32542 | -104.93722 | 14266 ft | 322 kts | 72° |
| 2026-05-06 22:50 | 39.33084 | -104.90963 | 14179 ft | 311 kts | 72° |
| 2026-05-06 22:50 | 39.33609 | -104.88293 | 14060 ft | 303 kts | 72° |
| 2026-05-06 22:50 | 39.34177 | -104.85702 | 13806 ft | 299 kts | 69° |
| 2026-05-06 22:50 | 39.34817 | -104.83160 | 13511 ft | 296 kts | 68° |
| 2026-05-06 22:51 | 39.35478 | -104.80660 | 13232 ft | 293 kts | 67° |
| 2026-05-06 22:51 | 39.36141 | -104.78185 | 12964 ft | 289 kts | 66° |
| 2026-05-06 22:51 | 39.36837 | -104.75802 | 12890 ft | 278 kts | 65° |
| 2026-05-06 22:51 | 39.37536 | -104.73512 | 12766 ft | 269 kts | 64° |
| 2026-05-06 22:52 | 39.38262 | -104.71332 | 12666 ft | 258 kts | 56° |
| 2026-05-06 22:52 | 39.39305 | -104.69521 | 12574 ft | 246 kts | 40° |
| 2026-05-06 22:52 | 39.40614 | -104.68162 | 12480 ft | 238 kts | 26° |
| 2026-05-06 22:52 | 39.42058 | -104.67139 | 12387 ft | 235 kts | 18° |
| 2026-05-06 22:53 | 39.43613 | -104.66587 | 12297 ft | 230 kts | 3° |
| 2026-05-06 22:53 | 39.45200 | -104.66506 | 12207 ft | 228 kts | 356° |
| 2026-05-06 22:53 | 39.46787 | -104.66487 | 12121 ft | 228 kts | 356° |
| 2026-05-06 22:53 | 39.48371 | -104.66466 | 12035 ft | 228 kts | 357° |
| 2026-05-06 22:54 | 39.49937 | -104.66446 | 11931 ft | 221 kts | 357° |
| 2026-05-06 22:54 | 39.51450 | -104.66428 | 11705 ft | 216 kts | 357° |
| 2026-05-06 22:54 | 39.52947 | -104.66411 | 11419 ft | 214 kts | 357° |
| 2026-05-06 22:54 | 39.54425 | -104.66393 | 11147 ft | 212 kts | 357° |
| 2026-05-06 22:55 | 39.55892 | -104.66376 | 10871 ft | 210 kts | 358° |
| 2026-05-06 22:55 | 39.57343 | -104.66359 | 10600 ft | 208 kts | 358° |
| 2026-05-06 22:55 | 39.58788 | -104.66342 | 10321 ft | 207 kts | 358° |
| 2026-05-06 22:55 | 39.60232 | -104.66325 | 10050 ft | 207 kts | 359° |
| 2026-05-06 22:56 | 39.61669 | -104.66308 | 9752 ft | 206 kts | 359° |
| 2026-05-06 22:56 | 39.63102 | -104.66291 | 9457 ft | 205 kts | 359° |
| 2026-05-06 22:56 | 39.64520 | -104.66273 | 9212 ft | 201 kts | 359° |
| 2026-05-06 22:56 | 39.65911 | -104.66257 | 8890 ft | 198 kts | 359° |
| 2026-05-06 22:57 | 39.67272 | -104.66240 | 8613 ft | 194 kts | 359° |
| 2026-05-06 22:57 | 39.68603 | -104.66224 | 8342 ft | 189 kts | 358° |
| 2026-05-06 22:57 | 39.69904 | -104.66209 | 8106 ft | 185 kts | 359° |
| 2026-05-06 22:57 | 39.71145 | -104.66193 | 7867 ft | 168 kts | 358° |
| 2026-05-06 22:58 | 39.72249 | -104.66179 | 7644 ft | 152 kts | 358° |
| 2026-05-06 22:58 | 39.73282 | -104.66168 | 7448 ft | 146 kts | 358° |
| 2026-05-06 22:58 | 39.74286 | -104.66156 | 7259 ft | 143 kts | 358° |
| 2026-05-06 22:58 | 39.75282 | -104.66145 | 7073 ft | 142 kts | 358° |
| 2026-05-06 22:59 | 39.76270 | -104.66133 | 6888 ft | 142 kts | 358° |
| 2026-05-06 22:59 | 39.77259 | -104.66121 | 6722 ft | 142 kts | 358° |
| 2026-05-06 22:59 | 39.78250 | -104.66110 | 6501 ft | 142 kts | 358° |
| 2026-05-06 22:59 | 39.79240 | -104.66096 | 6267 ft | 142 kts | 359° |
| 2026-05-06 23:00 | 39.80219 | -104.66100 | 6039 ft | 141 kts | 359° |
| 2026-05-06 23:00 | 39.81198 | -104.66080 | 5796 ft | 140 kts | 359° |
| 2026-05-06 23:00 | 39.82165 | -104.66068 | 5629 ft | 138 kts | 0° |
| 2026-05-06 23:00 | 39.83127 | -104.66059 | 5447 ft | 137 kts | 1° |
| 2026-05-06 23:01 | 39.83942 | -104.66046 | 5413 ft | 81 kts | 1° |
| 2026-05-06 23:01 | 39.84432 | -104.66036 | 5411 ft | 54 kts | 0° |
| 2026-05-06 23:01 | 39.84734 | -104.66052 | 5402 ft | 36 kts | 346° |
| 2026-05-06 23:01 | 39.84897 | -104.66151 | 5402 ft | 16 kts | 330° |
| 2026-05-06 23:02 | 39.84922 | -104.66168 | 5400 ft | 0 kts | 331° |
| 2026-05-06 23:02 | 39.84925 | -104.66170 | 5400 ft | 2 kts | 331° |
| 2026-05-06 23:02 | 39.84934 | -104.66177 | 5395 ft | 1 kts | 332° |
| 2026-05-06 23:02 | 39.84967 | -104.66201 | 5400 ft | 11 kts | 330° |
| 2026-05-06 23:03 | 39.85051 | -104.66242 | 5397 ft | 16 kts | 353° |
| 2026-05-06 23:03 | 39.85186 | -104.66243 | 5397 ft | 22 kts | 359° |
| 2026-05-06 23:03 | 39.85332 | -104.66241 | 5391 ft | 23 kts | 1° |
| 2026-05-06 23:03 | 39.85502 | -104.66240 | 5394 ft | 19 kts | 0° |
| 2026-05-06 23:04 | 39.85587 | -104.66345 | 5388 ft | 22 kts | 270° |
| 2026-05-06 23:04 | 39.85585 | -104.66558 | 5378 ft | 23 kts | 269° |
| 2026-05-06 23:04 | 39.85553 | -104.66744 | 5380 ft | 18 kts | 219° |
| 2026-05-06 23:04 | 39.85528 | -104.66894 | 5382 ft | 18 kts | 271° |
| 2026-05-06 23:05 | 39.85525 | -104.67072 | 5382 ft | 21 kts | 269° |
| 2026-05-06 23:05 | 39.85517 | -104.67188 | 5380 ft | 6 kts | 228° |
| 2026-05-06 23:05 | 39.85485 | -104.67215 | 5384 ft | 5 kts | 222° |
| 2026-05-06 23:05 | 39.85461 | -104.67229 | 5384 ft | 3 kts | 187° |
| 2026-05-06 23:06 | 39.85438 | -104.67230 | 5386 ft | 4 kts | 183° |
| 2026-05-06 23:06 | 39.85433 | -104.67230 | 5386 ft | 0 kts | 184° |